sensor_id;sensor_type;location;lat;lon;timestamp;pressure;altitude;pressure_sealevel;temperature;humidity
12763;BME280;6445;52.490;13.378;2022-12-10T00:00:21;92984.13;;;-146.10;98.21
12763;BME280;6445;52.490;13.378;2022-12-10T00:02:46;92725.41;;;-146.10;98.21
12763;BME280;6445;52.490;13.378;2022-12-10T00:05:12;93501.53;;;-146.10;98.35
12763;BME280;6445;52.490;13.378;2022-12-10T00:07:37;93501.53;;;-146.10;98.49
12763;BME280;6445;52.490;13.378;2022-12-10T00:10:03;92466.75;;;-146.10;98.15
12763;BME280;6445;52.490;13.378;2022-12-10T00:12:28;94019.06;;;-146.10;98.75
12763;BME280;6445;52.490;13.378;2022-12-10T00:14:53;94536.63;;;-146.10;98.89
12763;BME280;6445;52.490;13.378;2022-12-10T00:17:19;94795.44;;;-146.10;98.99
12763;BME280;6445;52.490;13.378;2022-12-10T00:19:44;94536.63;;;-146.10;98.91
12763;BME280;6445;52.490;13.378;2022-12-10T00:22:09;94536.63;;;-146.10;98.82
12763;BME280;6445;52.490;13.378;2022-12-10T00:24:34;95313.09;;;-146.10;99.40
12763;BME280;6445;52.490;13.378;2022-12-10T00:27:00;94277.81;;;-146.10;99.01
12763;BME280;6445;52.490;13.378;2022-12-10T00:29:25;94277.81;;;-146.10;98.67
12763;BME280;6445;52.490;13.378;2022-12-10T00:31:50;93760.28;;;-146.10;98.38
12763;BME280;6445;52.490;13.378;2022-12-10T00:34:16;93501.53;;;-146.10;98.69
12763;BME280;6445;52.490;13.378;2022-12-10T00:36:44;94019.06;;;-146.10;98.73
12763;BME280;6445;52.490;13.378;2022-12-10T00:39:12;93501.53;;;-146.10;98.76
12763;BME280;6445;52.490;13.378;2022-12-10T00:41:37;93242.81;;;-146.10;98.33
12763;BME280;6445;52.490;13.378;2022-12-10T00:44:04;94277.81;;;-146.10;99.17
12763;BME280;6445;52.490;13.378;2022-12-10T00:46:30;95313.09;;;-146.10;99.41
12763;BME280;6445;52.490;13.378;2022-12-10T00:48:55;95571.97;;;-146.10;99.19
12763;BME280;6445;52.490;13.378;2022-12-10T00:51:23;95054.25;;;-146.10;99.20
12763;BME280;6445;52.490;13.378;2022-12-10T00:53:50;95054.25;;;-146.10;99.27
12763;BME280;6445;52.490;13.378;2022-12-10T00:56:18;95830.84;;;-146.10;99.70
12763;BME280;6445;52.490;13.378;2022-12-10T00:58:43;96089.72;;;-146.10;99.92
12763;BME280;6445;52.490;13.378;2022-12-10T01:03:50;95830.84;;;-146.10;99.75
12763;BME280;6445;52.490;13.378;2022-12-10T01:06:18;95830.84;;;-146.10;99.83
12763;BME280;6445;52.490;13.378;2022-12-10T01:08:44;96089.72;;;-146.10;100.00
12763;BME280;6445;52.490;13.378;2022-12-10T01:11:11;96607.56;;;-146.10;100.00
12763;BME280;6445;52.490;13.378;2022-12-10T01:13:37;97643.44;;;-146.10;100.00
12763;BME280;6445;52.490;13.378;2022-12-10T01:16:05;98161.47;;;-146.10;100.00
12763;BME280;6445;52.490;13.378;2022-12-10T01:18:31;98420.50;;;-146.10;100.00
12763;BME280;6445;52.490;13.378;2022-12-10T01:21:07;97902.44;;;-146.10;100.00
12763;BME280;6445;52.490;13.378;2022-12-10T01:23:34;98161.47;;;-146.10;100.00
12763;BME280;6445;52.490;13.378;2022-12-10T01:26:02;96348.63;;;-146.10;99.99
12763;BME280;6445;52.490;13.378;2022-12-10T01:28:29;95830.84;;;-146.10;99.70
12763;BME280;6445;52.490;13.378;2022-12-10T01:30:55;95054.25;;;-146.10;99.58
12763;BME280;6445;52.490;13.378;2022-12-10T01:33:20;95830.84;;;-146.10;100.00
12763;BME280;6445;52.490;13.378;2022-12-10T01:35:45;96607.56;;;-146.10;100.00
12763;BME280;6445;52.490;13.378;2022-12-10T01:38:11;96089.72;;;-146.10;99.80
12763;BME280;6445;52.490;13.378;2022-12-10T01:40:39;95571.97;;;-146.10;99.98
12763;BME280;6445;52.490;13.378;2022-12-10T01:43:04;95054.25;;;-146.10;99.75
12763;BME280;6445;52.490;13.378;2022-12-10T01:45:29;95571.97;;;-146.10;100.00
12763;BME280;6445;52.490;13.378;2022-12-10T01:47:55;95830.84;;;-146.10;100.00
12763;BME280;6445;52.490;13.378;2022-12-10T01:50:20;96607.56;;;-146.10;100.00
12763;BME280;6445;52.490;13.378;2022-12-10T01:52:45;96607.56;;;-146.10;100.00
12763;BME280;6445;52.490;13.378;2022-12-10T01:55:43;97125.47;;;-146.10;100.00
12763;BME280;6445;52.490;13.378;2022-12-10T01:58:09;96348.63;;;-146.10;100.00
12763;BME280;6445;52.490;13.378;2022-12-10T02:00:41;96089.72;;;-146.10;100.00
12763;BME280;6445;52.490;13.378;2022-12-10T02:03:14;96607.56;;;-146.10;100.00
12763;BME280;6445;52.490;13.378;2022-12-10T02:05:46;95830.84;;;-146.10;100.00
12763;BME280;6445;52.490;13.378;2022-12-10T02:08:28;95830.84;;;-146.10;100.00
12763;BME280;6445;52.490;13.378;2022-12-10T02:11:43;96866.50;;;-146.10;100.00
12763;BME280;6445;52.490;13.378;2022-12-10T02:14:17;97902.44;;;-146.10;100.00
12763;BME280;6445;52.490;13.378;2022-12-10T02:16:49;98420.50;;;-146.10;100.00
12763;BME280;6445;52.490;13.378;2022-12-10T02:19:36;98420.50;;;-146.10;100.00
12763;BME280;6445;52.490;13.378;2022-12-10T02:22:07;98420.50;;;-146.10;100.00
12763;BME280;6445;52.490;13.378;2022-12-10T02:24:34;98161.47;;;-146.10;100.00
12763;BME280;6445;52.490;13.378;2022-12-10T02:27:11;98161.47;;;-146.10;100.00
12763;BME280;6445;52.490;13.378;2022-12-10T02:29:39;98420.50;;;-146.10;100.00
12763;BME280;6445;52.490;13.378;2022-12-10T02:32:09;98679.56;;;-146.10;100.00
12763;BME280;6445;52.490;13.378;2022-12-10T02:34:43;99197.72;;;-146.10;100.00
12763;BME280;6445;52.490;13.378;2022-12-10T02:37:24;100234.25;;;-146.10;100.00
12763;BME280;6445;52.490;13.378;2022-12-10T02:39:54;100752.63;;;-146.10;100.00
12763;BME280;6445;52.490;13.378;2022-12-10T02:42:21;101011.81;;;-146.10;100.00
12763;BME280;6445;52.490;13.378;2022-12-10T02:44:49;100752.63;;;-146.10;100.00
12763;BME280;6445;52.490;13.378;2022-12-10T02:47:16;101271.06;;;-146.10;100.00
12763;BME280;6445;52.490;13.378;2022-12-10T02:49:45;101789.53;;;-146.10;100.00
12763;BME280;6445;52.490;13.378;2022-12-10T02:52:13;102308.09;;;-146.10;100.00
12763;BME280;6445;52.490;13.378;2022-12-10T02:54:44;102567.41;;;-146.10;100.00
12763;BME280;6445;52.490;13.378;2022-12-10T02:57:22;102567.41;;;-146.10;100.00
12763;BME280;6445;52.490;13.378;2022-12-10T03:02:49;103864.19;;;-146.10;100.00
12763;BME280;6445;52.490;13.378;2022-12-10T03:05:26;104123.59;;;-146.10;100.00
12763;BME280;6445;52.490;13.378;2022-12-10T03:08:08;104383.03;;;-146.10;100.00
12763;BME280;6445;52.490;13.378;2022-12-10T03:13:32;104383.03;;;-146.10;100.00
12763;BME280;6445;52.490;13.378;2022-12-10T03:16:02;104383.03;;;-146.10;100.00
12763;BME280;6445;52.490;13.378;2022-12-10T03:18:31;104642.47;;;-146.10;100.00
12763;BME280;6445;52.490;13.378;2022-12-10T03:21:03;104383.03;;;-146.10;100.00
12763;BME280;6445;52.490;13.378;2022-12-10T03:23:32;104383.03;;;-146.10;100.00
12763;BME280;6445;52.490;13.378;2022-12-10T03:26:00;104123.59;;;-146.10;100.00
12763;BME280;6445;52.490;13.378;2022-12-10T03:28:26;103864.19;;;-146.10;100.00
12763;BME280;6445;52.490;13.378;2022-12-10T03:30:52;103864.19;;;-146.10;100.00
12763;BME280;6445;52.490;13.378;2022-12-10T03:33:19;103345.44;;;-146.10;100.00
12763;BME280;6445;52.490;13.378;2022-12-10T03:35:45;103086.06;;;-146.10;100.00
12763;BME280;6445;52.490;13.378;2022-12-10T03:38:11;103086.06;;;-146.10;100.00
12763;BME280;6445;52.490;13.378;2022-12-10T03:40:37;102826.75;;;-146.10;100.00
12763;BME280;6445;52.490;13.378;2022-12-10T03:43:02;102826.75;;;-146.10;100.00
12763;BME280;6445;52.490;13.378;2022-12-10T03:45:27;102308.09;;;-146.10;100.00
12763;BME280;6445;52.490;13.378;2022-12-10T03:47:53;101530.28;;;-146.10;100.00
12763;BME280;6445;52.490;13.378;2022-12-10T03:50:18;101011.81;;;-146.10;100.00
12763;BME280;6445;52.490;13.378;2022-12-10T03:52:44;101271.06;;;-146.10;100.00
12763;BME280;6445;52.490;13.378;2022-12-10T03:55:09;101530.28;;;-146.10;100.00
12763;BME280;6445;52.490;13.378;2022-12-10T03:57:35;101530.28;;;-146.10;100.00
12763;BME280;6445;52.490;13.378;2022-12-10T04:00:02;101530.28;;;-146.10;100.00
12763;BME280;6445;52.490;13.378;2022-12-10T04:02:28;101789.53;;;-146.10;100.00
12763;BME280;6445;52.490;13.378;2022-12-10T04:04:53;101271.06;;;-146.10;100.00
12763;BME280;6445;52.490;13.378;2022-12-10T04:07:18;101271.06;;;-146.10;100.00
12763;BME280;6445;52.490;13.378;2022-12-10T04:09:44;101530.28;;;-146.10;100.00
12763;BME280;6445;52.490;13.378;2022-12-10T04:12:09;101271.06;;;-146.10;100.00
12763;BME280;6445;52.490;13.378;2022-12-10T04:14:35;101789.53;;;-146.10;100.00
12763;BME280;6445;52.490;13.378;2022-12-10T04:17:19;101530.28;;;-146.10;100.00
12763;BME280;6445;52.490;13.378;2022-12-10T04:19:44;101271.06;;;-146.10;100.00
12763;BME280;6445;52.490;13.378;2022-12-10T04:22:09;101011.81;;;-146.10;100.00
12763;BME280;6445;52.490;13.378;2022-12-10T04:24:53;100493.44;;;-146.10;100.00
12763;BME280;6445;52.490;13.378;2022-12-10T04:27:38;99975.09;;;-146.10;100.00
12763;BME280;6445;52.490;13.378;2022-12-10T04:30:09;99715.97;;;-146.10;100.00
12763;BME280;6445;52.490;13.378;2022-12-10T04:32:35;100234.25;;;-146.10;100.00
12763;BME280;6445;52.490;13.378;2022-12-10T04:35:01;99715.97;;;-146.10;100.00
12763;BME280;6445;52.490;13.378;2022-12-10T04:37:27;99715.97;;;-146.10;100.00
12763;BME280;6445;52.490;13.378;2022-12-10T04:39:53;99456.84;;;-146.10;100.00
12763;BME280;6445;52.490;13.378;2022-12-10T04:42:19;98938.63;;;-146.10;100.00
12763;BME280;6445;52.490;13.378;2022-12-10T04:44:45;98679.56;;;-146.10;100.00
12763;BME280;6445;52.490;13.378;2022-12-10T04:47:11;98420.50;;;-146.10;100.00
12763;BME280;6445;52.490;13.378;2022-12-10T04:49:37;98420.50;;;-146.10;100.00
12763;BME280;6445;52.490;13.378;2022-12-10T04:52:03;98161.47;;;-146.10;100.00
12763;BME280;6445;52.490;13.378;2022-12-10T04:54:29;98420.50;;;-146.10;100.00
12763;BME280;6445;52.490;13.378;2022-12-10T04:56:54;98420.50;;;-146.10;100.00
12763;BME280;6445;52.490;13.378;2022-12-10T04:59:19;98420.50;;;-146.10;100.00
12763;BME280;6445;52.490;13.378;2022-12-10T05:01:45;98420.50;;;-146.10;100.00
12763;BME280;6445;52.490;13.378;2022-12-10T05:04:12;97384.44;;;-146.10;100.00
12763;BME280;6445;52.490;13.378;2022-12-10T05:06:38;96348.63;;;-146.10;100.00
12763;BME280;6445;52.490;13.378;2022-12-10T05:09:04;95313.09;;;-146.10;100.00
12763;BME280;6445;52.490;13.378;2022-12-10T05:11:30;94536.63;;;-146.10;100.00
12763;BME280;6445;52.490;13.378;2022-12-10T05:13:56;94795.44;;;-146.10;100.00
12763;BME280;6445;52.490;13.378;2022-12-10T05:16:23;95054.25;;;-146.10;100.00
12763;BME280;6445;52.490;13.378;2022-12-10T05:18:49;95054.25;;;-146.10;100.00
12763;BME280;6445;52.490;13.378;2022-12-10T05:21:18;95054.25;;;-146.10;100.00
12763;BME280;6445;52.490;13.378;2022-12-10T05:23:46;95054.25;;;-146.10;100.00
12763;BME280;6445;52.490;13.378;2022-12-10T05:26:14;95313.09;;;-146.10;100.00
12763;BME280;6445;52.490;13.378;2022-12-10T05:28:43;94536.63;;;-146.10;100.00
12763;BME280;6445;52.490;13.378;2022-12-10T05:31:14;92984.13;;;-146.10;100.00
12763;BME280;6445;52.490;13.378;2022-12-10T05:33:40;92208.09;;;-146.10;100.00
12763;BME280;6445;52.490;13.378;2022-12-10T05:36:06;92208.09;;;-146.10;100.00
12763;BME280;6445;52.490;13.378;2022-12-10T05:38:32;91949.44;;;-146.10;100.00
12763;BME280;6445;52.490;13.378;2022-12-10T05:41:06;90139.41;;;-146.10;99.24
12763;BME280;6445;52.490;13.378;2022-12-10T05:43:32;89622.38;;;-146.10;99.38
12763;BME280;6445;52.490;13.378;2022-12-10T05:46:02;88966.13;;;-146.10;98.95
12763;BME280;6445;52.490;13.378;2022-12-10T05:48:27;88493.69;;;-146.10;98.53
12763;BME280;6445;52.490;13.378;2022-12-10T05:50:52;87623.66;;;-146.10;98.21
12763;BME280;6445;52.490;13.378;2022-12-10T05:53:18;88588.56;;;-146.10;98.53
12763;BME280;6445;52.490;13.378;2022-12-10T05:55:43;86035.47;;;-146.10;97.68
12763;BME280;6445;52.490;13.378;2022-12-10T05:58:08;84409.59;;;-146.10;96.90
12763;BME280;6445;52.490;13.378;2022-12-10T06:00:33;83433.56;;;-146.10;97.02
12763;BME280;6445;52.490;13.378;2022-12-10T06:02:59;83260.16;;;-146.10;96.33
12763;BME280;6445;52.490;13.378;2022-12-10T06:05:24;83078.72;;;-146.10;96.15
12763;BME280;6445;52.490;13.378;2022-12-10T06:07:49;76867.75;;;-146.10;94.49
12763;BME280;6445;52.490;13.378;2022-12-10T06:10:15;77065.03;;;-146.10;94.46
12763;BME280;6445;52.490;13.378;2022-12-10T06:12:40;75444.78;;;-146.10;94.13
12763;BME280;6445;52.490;13.378;2022-12-10T06:15:05;74654.03;;;-146.10;93.93
12763;BME280;6445;52.490;13.378;2022-12-10T06:17:31;76670.47;;;-146.10;94.38
12763;BME280;6445;52.490;13.378;2022-12-10T06:19:57;76612.09;;;-146.10;94.20
12763;BME280;6445;52.490;13.378;2022-12-10T06:22:22;75529.31;;;-146.10;93.83
12763;BME280;6445;52.490;13.378;2022-12-10T06:24:47;75378.38;;;-146.10;93.77
12763;BME280;6445;52.490;13.378;2022-12-10T06:27:13;77628.75;;;-146.10;94.38
12763;BME280;6445;52.490;13.378;2022-12-10T06:29:38;76292.06;;;-146.10;93.79
12763;BME280;6445;52.490;13.378;2022-12-10T06:32:04;76205.50;;;-146.10;93.89
12763;BME280;6445;52.490;13.378;2022-12-10T06:34:29;76014.31;;;-146.10;93.65
12763;BME280;6445;52.490;13.378;2022-12-10T06:36:54;74267.75;;;-146.10;93.38
12763;BME280;6445;52.490;13.378;2022-12-10T06:39:19;72992.53;;;-146.10;92.81
12763;BME280;6445;52.490;13.378;2022-12-10T06:41:45;74678.16;;;-146.10;93.22
12763;BME280;6445;52.490;13.378;2022-12-10T06:44:11;73123.25;;;-146.10;93.19
12763;BME280;6445;52.490;13.378;2022-12-10T06:46:36;72137.91;;;-146.10;92.64
12763;BME280;6445;52.490;13.378;2022-12-10T06:49:02;69287.84;;;-146.10;91.88
12763;BME280;6445;52.490;13.378;2022-12-10T06:51:28;67178.72;;;-146.10;91.59
12763;BME280;6445;52.490;13.378;2022-12-10T06:53:53;65893.69;;;-146.10;90.81
12763;BME280;6445;52.490;13.378;2022-12-10T06:56:19;64083.34;;;-146.10;90.47
12763;BME280;6445;52.490;13.378;2022-12-10T06:58:45;62432.25;;;-146.10;89.72
12763;BME280;6445;52.490;13.378;2022-12-10T07:01:13;64476.66;;;-146.10;90.69
12763;BME280;6445;52.490;13.378;2022-12-10T07:03:39;65947.91;;;-146.10;90.90
12763;BME280;6445;52.490;13.378;2022-12-10T07:06:07;63264.72;;;-146.10;90.14
12763;BME280;6445;52.490;13.378;2022-12-10T07:08:33;62348.00;;;-146.10;90.13
12763;BME280;6445;52.490;13.378;2022-12-10T07:10:58;61267.09;;;-146.10;89.34
12763;BME280;6445;52.490;13.378;2022-12-10T07:13:24;60695.66;;;-146.10;89.13
12763;BME280;6445;52.490;13.378;2022-12-10T07:15:50;59773.50;;;-146.10;88.72
12763;BME280;6445;52.490;13.378;2022-12-10T07:18:15;60637.50;;;-146.10;89.47
12763;BME280;6445;52.490;13.378;2022-12-10T07:20:40;61938.88;;;-146.10;89.58
12763;BME280;6445;52.490;13.378;2022-12-10T07:23:05;61964.94;;;-146.10;89.88
12763;BME280;6445;52.490;13.378;2022-12-10T07:25:32;62430.25;;;-146.10;89.78
12763;BME280;6445;52.490;13.378;2022-12-10T07:27:57;62141.44;;;-146.10;89.93
12763;BME280;6445;52.490;13.378;2022-12-10T07:30:22;61006.41;;;-146.10;89.39
12763;BME280;6445;52.490;13.378;2022-12-10T07:32:48;62193.56;;;-146.10;89.70
12763;BME280;6445;52.490;13.378;2022-12-10T07:35:13;61866.66;;;-146.10;89.66
12763;BME280;6445;52.490;13.378;2022-12-10T07:37:38;60144.34;;;-146.10;88.83
12763;BME280;6445;52.490;13.378;2022-12-10T07:40:04;59645.22;;;-146.10;88.60
12763;BME280;6445;52.490;13.378;2022-12-10T07:42:29;58661.22;;;-146.10;88.14
12763;BME280;6445;52.490;13.378;2022-12-10T07:44:54;57769.59;;;-146.10;87.61
12763;BME280;6445;52.490;13.378;2022-12-10T07:47:20;57186.66;;;-146.10;87.57
12763;BME280;6445;52.490;13.378;2022-12-10T07:49:45;57368.94;;;-146.10;88.01
12763;BME280;6445;52.490;13.378;2022-12-10T07:52:10;58741.38;;;-146.10;88.54
12763;BME280;6445;52.490;13.378;2022-12-10T07:54:36;58166.28;;;-146.10;87.87
12763;BME280;6445;52.490;13.378;2022-12-10T07:57:01;57621.34;;;-146.10;87.90
12763;BME280;6445;52.490;13.378;2022-12-10T07:59:26;58561.03;;;-146.10;88.55
12763;BME280;6445;52.490;13.378;2022-12-10T08:01:52;58058.09;;;-146.10;87.99
12763;BME280;6445;52.490;13.378;2022-12-10T08:04:17;57348.91;;;-146.10;87.78
12763;BME280;6445;52.490;13.378;2022-12-10T08:06:42;57769.59;;;-146.10;88.04
12763;BME280;6445;52.490;13.378;2022-12-10T08:09:09;57479.09;;;-146.10;87.50
12763;BME280;6445;52.490;13.378;2022-12-10T08:11:34;56079.06;;;-146.10;86.92
12763;BME280;6445;52.490;13.378;2022-12-10T08:13:59;55840.78;;;-146.10;86.45
12763;BME280;6445;52.490;13.378;2022-12-10T08:16:27;55850.78;;;-146.10;86.33
12763;BME280;6445;52.490;13.378;2022-12-10T08:18:58;54959.81;;;-146.10;85.40
12763;BME280;6445;52.490;13.378;2022-12-10T08:21:26;54943.78;;;-146.10;85.78
12763;BME280;6445;52.490;13.378;2022-12-10T08:23:53;54925.78;;;-146.10;85.72
12763;BME280;6445;52.490;13.378;2022-12-10T08:26:20;55087.94;;;-146.10;85.63
12763;BME280;6445;52.490;13.378;2022-12-10T08:28:47;54633.50;;;-146.10;85.28
12763;BME280;6445;52.490;13.378;2022-12-10T08:31:13;54697.56;;;-146.10;85.49
12763;BME280;6445;52.490;13.378;2022-12-10T08:33:39;54519.38;;;-146.10;85.15
12763;BME280;6445;52.490;13.378;2022-12-10T08:36:06;54655.50;;;-146.10;85.33
12763;BME280;6445;52.490;13.378;2022-12-10T08:38:32;54617.47;;;-146.10;85.49
12763;BME280;6445;52.490;13.378;2022-12-10T08:40:57;54499.38;;;-146.10;85.43
12763;BME280;6445;52.490;13.378;2022-12-10T08:43:23;54911.75;;;-146.10;85.88
12763;BME280;6445;52.490;13.378;2022-12-10T08:45:48;55606.50;;;-146.10;86.38
12763;BME280;6445;52.490;13.378;2022-12-10T08:48:14;55474.34;;;-146.10;86.28
12763;BME280;6445;52.490;13.378;2022-12-10T08:50:39;55023.88;;;-146.10;85.80
12763;BME280;6445;52.490;13.378;2022-12-10T08:53:07;55037.88;;;-146.10;86.02
12763;BME280;6445;52.490;13.378;2022-12-10T08:55:33;55198.06;;;-146.10;85.88
12763;BME280;6445;52.490;13.378;2022-12-10T08:57:58;55404.28;;;-146.10;86.04
12763;BME280;6445;52.490;13.378;2022-12-10T09:00:25;55085.94;;;-146.10;85.84
12763;BME280;6445;52.490;13.378;2022-12-10T09:02:50;54937.78;;;-146.10;85.65
12763;BME280;6445;52.490;13.378;2022-12-10T09:05:16;54713.56;;;-146.10;85.00
12763;BME280;6445;52.490;13.378;2022-12-10T09:07:42;54639.50;;;-146.10;84.80
12763;BME280;6445;52.490;13.378;2022-12-10T09:10:09;54839.69;;;-146.10;85.36
12763;BME280;6445;52.490;13.378;2022-12-10T09:12:36;54629.50;;;-146.10;85.28
12763;BME280;6445;52.490;13.378;2022-12-10T09:15:02;54773.63;;;-146.10;85.50
12763;BME280;6445;52.490;13.378;2022-12-10T09:17:27;54923.78;;;-146.10;85.80
12763;BME280;6445;52.490;13.378;2022-12-10T09:19:52;54989.84;;;-146.10;85.50
12763;BME280;6445;52.490;13.378;2022-12-10T09:22:18;55514.41;;;-146.10;86.08
12763;BME280;6445;52.490;13.378;2022-12-10T09:24:43;55182.03;;;-146.10;85.94
12763;BME280;6445;52.490;13.378;2022-12-10T09:27:08;55107.94;;;-146.10;85.43
12763;BME280;6445;52.490;13.378;2022-12-10T09:29:34;54481.34;;;-146.10;84.92
12763;BME280;6445;52.490;13.378;2022-12-10T09:31:59;54609.47;;;-146.10;85.04
12763;BME280;6445;52.490;13.378;2022-12-10T09:34:24;54413.31;;;-146.10;84.62
12763;BME280;6445;52.490;13.378;2022-12-10T09:36:49;54359.25;;;-146.10;84.67
12763;BME280;6445;52.490;13.378;2022-12-10T09:39:15;54185.09;;;-146.10;84.49
12763;BME280;6445;52.490;13.378;2022-12-10T09:42:14;54365.25;;;-146.10;84.61
12763;BME280;6445;52.490;13.378;2022-12-10T09:44:43;54267.19;;;-146.10;84.62
12763;BME280;6445;52.490;13.378;2022-12-10T09:47:14;54237.16;;;-146.10;84.21
12763;BME280;6445;52.490;13.378;2022-12-10T09:49:58;54175.09;;;-146.10;84.27
12763;BME280;6445;52.490;13.378;2022-12-10T09:52:29;54305.22;;;-146.10;84.72
12763;BME280;6445;52.490;13.378;2022-12-10T09:55:02;54303.22;;;-146.10;84.52
12763;BME280;6445;52.490;13.378;2022-12-10T09:57:38;54279.19;;;-146.10;84.29
12763;BME280;6445;52.490;13.378;2022-12-10T10:00:25;53898.88;;;-146.10;83.54
12763;BME280;6445;52.490;13.378;2022-12-10T10:02:55;53554.66;;;-146.10;83.11
12763;BME280;6445;52.490;13.378;2022-12-10T10:05:27;53430.59;;;-146.10;82.92
12763;BME280;6445;52.490;13.378;2022-12-10T10:07:55;53828.84;;;-146.10;83.70
12763;BME280;6445;52.490;13.378;2022-12-10T10:10:31;53564.66;;;-146.10;82.97
12763;BME280;6445;52.490;13.378;2022-12-10T10:13:01;53580.69;;;-146.10;83.13
12763;BME280;6445;52.490;13.378;2022-12-10T10:15:39;53236.47;;;-146.10;82.64
12763;BME280;6445;52.490;13.378;2022-12-10T10:18:14;53206.44;;;-146.10;82.07
12763;BME280;6445;52.490;13.378;2022-12-10T10:20:41;54077.03;;;-146.10;84.53
12763;BME280;6445;52.490;13.378;2022-12-10T10:23:08;70638.25;;;-146.10;90.18
12763;BME280;6445;52.490;13.378;2022-12-10T10:25:38;66971.88;;;-146.10;89.36
12763;BME280;6445;52.490;13.378;2022-12-10T10:28:03;60589.38;;;-146.10;87.64
12763;BME280;6445;52.490;13.378;2022-12-10T10:30:28;59424.75;;;-146.10;86.14
12763;BME280;6445;52.490;13.378;2022-12-10T10:32:56;58188.31;;;-146.10;86.41
12763;BME280;6445;52.490;13.378;2022-12-10T10:35:34;53780.81;;;-146.10;82.33
12763;BME280;6445;52.490;13.378;2022-12-10T10:38:12;54089.03;;;-146.10;82.81
12763;BME280;6445;52.490;13.378;2022-12-10T10:40:46;53144.41;;;-146.10;81.57
12763;BME280;6445;52.490;13.378;2022-12-10T10:43:19;52872.28;;;-146.10;80.98
12763;BME280;6445;52.490;13.378;2022-12-10T10:45:54;52854.28;;;-146.10;80.92
12763;BME280;6445;52.490;13.378;2022-12-10T10:48:24;53208.44;;;-146.10;81.82
12763;BME280;6445;52.490;13.378;2022-12-10T10:53:52;53016.34;;;-146.10;81.35
12763;BME280;6445;52.490;13.378;2022-12-10T10:56:22;52974.31;;;-146.10;81.26
12763;BME280;6445;52.490;13.378;2022-12-10T10:59:04;52970.31;;;-146.10;81.23
12763;BME280;6445;52.490;13.378;2022-12-10T11:01:48;52824.25;;;-146.10;80.96
12763;BME280;6445;52.490;13.378;2022-12-10T11:04:16;52898.28;;;-146.10;81.72
12763;BME280;6445;52.490;13.378;2022-12-10T11:06:43;52964.31;;;-146.10;81.76
12763;BME280;6445;52.490;13.378;2022-12-10T11:09:17;53046.38;;;-146.10;81.32
12763;BME280;6445;52.490;13.378;2022-12-10T11:11:50;52930.31;;;-146.10;81.42
12763;BME280;6445;52.490;13.378;2022-12-10T11:14:35;52932.31;;;-146.10;81.51
12763;BME280;6445;52.490;13.378;2022-12-10T11:17:18;53024.34;;;-146.10;81.63
12763;BME280;6445;52.490;13.378;2022-12-10T11:19:59;53054.38;;;-146.10;81.74
12763;BME280;6445;52.490;13.378;2022-12-10T11:22:30;53550.66;;;-146.10;83.34
12763;BME280;6445;52.490;13.378;2022-12-10T11:24:57;53778.81;;;-146.10;83.42
12763;BME280;6445;52.490;13.378;2022-12-10T11:27:37;54339.25;;;-146.10;85.01
12763;BME280;6445;52.490;13.378;2022-12-10T11:30:05;54139.06;;;-146.10;84.35
12763;BME280;6445;52.490;13.378;2022-12-10T11:32:44;54135.06;;;-146.10;84.04
12763;BME280;6445;52.490;13.378;2022-12-10T11:35:16;54251.16;;;-146.10;84.23
12763;BME280;6445;52.490;13.378;2022-12-10T11:37:56;54135.06;;;-146.10;84.08
12763;BME280;6445;52.490;13.378;2022-12-10T11:40:46;54327.22;;;-146.10;84.38
12763;BME280;6445;52.490;13.378;2022-12-10T11:43:38;54403.28;;;-146.10;84.74
12763;BME280;6445;52.490;13.378;2022-12-10T11:46:42;54567.44;;;-146.10;84.98
12763;BME280;6445;52.490;13.378;2022-12-10T11:49:35;54855.69;;;-146.10;85.17
12763;BME280;6445;52.490;13.378;2022-12-10T11:52:19;54833.69;;;-146.10;84.92
12763;BME280;6445;52.490;13.378;2022-12-10T11:55:29;55214.06;;;-146.10;85.26
12763;BME280;6445;52.490;13.378;2022-12-10T11:58:13;54723.56;;;-146.10;84.83
12763;BME280;6445;52.490;13.378;2022-12-10T12:00:59;54939.78;;;-146.10;85.26
12763;BME280;6445;52.490;13.378;2022-12-10T12:03:36;55192.03;;;-146.10;85.58
12763;BME280;6445;52.490;13.378;2022-12-10T12:06:26;54949.78;;;-146.10;85.00
12763;BME280;6445;52.490;13.378;2022-12-10T12:12:00;54653.50;;;-146.10;84.88
12763;BME280;6445;52.490;13.378;2022-12-10T12:14:36;55168.03;;;-146.10;85.29
12763;BME280;6445;52.490;13.378;2022-12-10T12:17:27;58767.41;;;-146.10;88.36
12763;BME280;6445;52.490;13.378;2022-12-10T12:20:00;65207.19;;;-146.10;89.32
12763;BME280;6445;52.490;13.378;2022-12-10T12:22:29;57503.16;;;-146.10;86.32
12763;BME280;6445;52.490;13.378;2022-12-10T12:25:02;56117.13;;;-146.10;85.80
12763;BME280;6445;52.490;13.378;2022-12-10T12:27:50;55788.72;;;-146.10;85.46
12763;BME280;6445;52.490;13.378;2022-12-10T12:30:20;56379.47;;;-146.10;86.31
12763;BME280;6445;52.490;13.378;2022-12-10T12:37:58;58484.88;;;-146.10;87.22
12763;BME280;6445;52.490;13.378;2022-12-10T12:43:31;57909.84;;;-146.10;87.15
12763;BME280;6445;52.490;13.378;2022-12-10T12:45:59;57214.69;;;-146.10;86.67
12763;BME280;6445;52.490;13.378;2022-12-10T12:51:12;58180.31;;;-146.10;87.33
12763;BME280;6445;52.490;13.378;2022-12-10T12:53:40;59015.91;;;-146.10;87.65
12763;BME280;6445;52.490;13.378;2022-12-10T12:56:17;58559.00;;;-146.10;87.55
12763;BME280;6445;52.490;13.378;2022-12-10T12:59:06;58643.19;;;-146.10;87.60
12763;BME280;6445;52.490;13.378;2022-12-10T13:01:59;59649.22;;;-146.10;88.40
12763;BME280;6445;52.490;13.378;2022-12-10T13:04:27;60372.88;;;-146.10;88.35
12763;BME280;6445;52.490;13.378;2022-12-10T13:09:48;62370.09;;;-146.10;89.00
12763;BME280;6445;52.490;13.378;2022-12-10T13:12:31;62263.78;;;-146.10;88.72
12763;BME280;6445;52.490;13.378;2022-12-10T13:15:32;65255.38;;;-146.10;89.62